createdAt,value
2022-11-29T00:01:17.020Z,33.13
2022-11-29T00:03:43.912Z,34.00
2022-11-29T00:06:17.846Z,34.60
2022-11-29T00:08:45.573Z,30.60
2022-11-29T00:11:39.239Z,32.63
2022-11-29T00:14:12.105Z,30.10
2022-11-29T00:16:41.864Z,32.20
2022-11-29T00:19:10.949Z,29.77
2022-11-29T00:21:38.013Z,28.60
2022-11-29T00:24:05.486Z,29.00
2022-11-29T00:26:32.442Z,30.47
2022-11-29T00:28:59.280Z,27.47
2022-11-29T00:31:30.482Z,25.60
2022-11-29T00:33:59.468Z,27.57
2022-11-29T00:36:27.072Z,26.47
2022-11-29T00:38:54.126Z,24.33
2022-11-29T00:41:21.081Z,24.40
2022-11-29T00:43:48.139Z,23.00
2022-11-29T00:46:15.128Z,25.87
2022-11-29T00:48:42.042Z,24.60
2022-11-29T00:51:09.267Z,25.70
2022-11-29T00:53:37.542Z,24.20
2022-11-29T00:56:05.506Z,25.00
2022-11-29T00:58:32.890Z,23.90
2022-11-29T01:00:59.892Z,23.17
2022-11-29T01:03:27.007Z,22.63
2022-11-29T01:06:06.974Z,24.03
2022-11-29T01:08:34.359Z,22.80
2022-11-29T01:11:08.157Z,24.50
2022-11-29T01:13:35.387Z,24.73
2022-11-29T01:16:03.269Z,23.70
2022-11-29T01:18:30.636Z,24.10
2022-11-29T01:21:02.148Z,23.43
2022-11-29T01:23:30.112Z,20.80
2022-11-29T01:26:05.297Z,23.87
2022-11-29T01:28:32.564Z,24.30
2022-11-29T01:30:59.478Z,23.20
2022-11-29T01:33:26.441Z,24.10
2022-11-29T01:35:55.048Z,23.00
2022-11-29T01:38:23.303Z,25.10
2022-11-29T01:41:09.728Z,24.33
2022-11-29T01:43:58.775Z,23.47
2022-11-29T01:46:31.379Z,25.37
2022-11-29T01:49:21.352Z,23.50
2022-11-29T01:52:12.414Z,21.67
2022-11-29T01:54:45.075Z,23.30
2022-11-29T01:57:13.281Z,22.50
2022-11-29T01:59:47.029Z,23.00
2022-11-29T02:02:18.682Z,22.80
2022-11-29T02:04:47.672Z,22.17
2022-11-29T02:07:14.990Z,24.37
2022-11-29T02:09:41.995Z,23.47
2022-11-29T02:12:36.062Z,25.30
2022-11-29T02:15:55.785Z,24.57
2022-11-29T02:18:57.827Z,23.70
2022-11-29T02:21:42.376Z,23.90
2022-11-29T02:24:19.389Z,24.17
2022-11-29T02:27:36.077Z,24.70
2022-11-29T02:30:25.016Z,27.20
2022-11-29T02:33:44.686Z,24.93
2022-11-29T02:36:42.390Z,23.90
2022-11-29T02:39:27.085Z,24.20
2022-11-29T02:42:10.853Z,25.20
2022-11-29T02:44:56.167Z,26.40
2022-11-29T02:47:32.883Z,24.00
2022-11-29T02:50:27.080Z,23.97
2022-11-29T02:53:24.120Z,25.77
2022-11-29T02:56:23.669Z,24.10
2022-11-29T02:59:17.096Z,26.60
2022-11-29T03:02:03.167Z,26.30
2022-11-29T03:05:16.853Z,26.13
2022-11-29T03:08:10.734Z,24.00
2022-11-29T03:11:02.235Z,25.77
2022-11-29T03:14:05.189Z,25.07
2022-11-29T03:17:04.508Z,26.03
2022-11-29T03:20:08.361Z,27.33
2022-11-29T03:23:20.052Z,26.33
2022-11-29T03:26:09.181Z,27.00
2022-11-29T03:29:06.965Z,27.13
2022-11-29T03:31:42.284Z,25.10
2022-11-29T03:34:30.233Z,25.23
2022-11-29T03:37:17.271Z,27.00
2022-11-29T03:40:10.707Z,28.37
2022-11-29T03:43:10.705Z,25.20
2022-11-29T03:45:48.843Z,25.97
2022-11-29T03:48:31.558Z,27.47
2022-11-29T03:51:07.808Z,26.50
2022-11-29T03:53:48.450Z,28.13
2022-11-29T03:56:37.845Z,26.00
2022-11-29T03:59:52.158Z,26.03
2022-11-29T04:02:51.533Z,26.00
2022-11-29T04:05:49.504Z,25.07
2022-11-29T04:08:40.289Z,26.10
2022-11-29T04:11:54.938Z,28.77
2022-11-29T04:14:34.865Z,27.27
2022-11-29T04:17:19.721Z,28.30
2022-11-29T04:20:47.834Z,30.20
2022-11-29T04:23:48.840Z,27.63
2022-11-29T04:26:54.443Z,27.70
2022-11-29T04:29:49.386Z,28.40
2022-11-29T04:33:06.978Z,27.73
2022-11-29T04:36:23.444Z,26.00
2022-11-29T04:39:28.868Z,27.17
2022-11-29T04:42:29.093Z,27.03
2022-11-29T04:45:10.851Z,26.60
2022-11-29T04:47:50.666Z,26.93
2022-11-29T04:51:22.089Z,27.80
2022-11-29T04:54:06.509Z,28.10
2022-11-29T04:56:57.174Z,27.90
2022-11-29T04:59:42.274Z,27.00
2022-11-29T05:02:51.284Z,28.13
2022-11-29T05:05:29.981Z,27.87
2022-11-29T05:08:43.098Z,28.27
2022-11-29T05:12:00.008Z,27.10
2022-11-29T05:15:04.425Z,27.40
2022-11-29T05:18:09.403Z,27.77
2022-11-29T05:21:08.639Z,27.77
2022-11-29T05:24:16.647Z,26.20
2022-11-29T05:27:32.325Z,27.20
2022-11-29T05:30:10.731Z,26.17
2022-11-29T05:32:48.798Z,26.67
2022-11-29T05:35:43.401Z,26.07
2022-11-29T05:38:44.963Z,26.47
2022-11-29T05:41:34.300Z,28.13
2022-11-29T05:44:07.896Z,26.60
2022-11-29T05:46:59.151Z,24.80
2022-11-29T05:50:10.187Z,27.10
2022-11-29T05:53:26.393Z,26.83
2022-11-29T05:56:50.072Z,27.03
2022-11-29T05:59:26.293Z,27.77
2022-11-29T06:02:34.409Z,27.73
2022-11-29T06:05:39.325Z,28.47
2022-11-29T06:08:44.942Z,27.80
2022-11-29T06:11:29.997Z,26.20
2022-11-29T06:14:38.125Z,27.60
2022-11-29T06:17:42.383Z,27.40
2022-11-29T06:20:57.249Z,26.23
2022-11-29T06:23:37.146Z,27.00
2022-11-29T06:26:38.735Z,26.87
2022-11-29T06:29:54.306Z,26.63
2022-11-29T06:32:37.379Z,26.13
2022-11-29T06:35:46.392Z,27.27
2022-11-29T06:38:23.925Z,24.93
2022-11-29T06:40:56.035Z,25.93
2022-11-29T06:43:27.653Z,25.70
2022-11-29T06:46:15.770Z,27.47
2022-11-29T06:48:55.495Z,26.70
2022-11-29T06:52:03.047Z,23.93
2022-11-29T06:54:53.126Z,24.80
2022-11-29T06:57:53.817Z,25.47
2022-11-29T07:00:27.606Z,25.70
2022-11-29T07:03:15.309Z,24.03
2022-11-29T07:05:42.887Z,26.50
2022-11-29T07:08:18.878Z,25.60
2022-11-29T07:10:50.069Z,25.60
2022-11-29T07:13:18.465Z,32.10
2022-11-29T07:16:00.091Z,25.83
2022-11-29T07:18:54.737Z,26.87
2022-11-29T07:22:04.273Z,25.43
2022-11-29T07:24:58.464Z,26.47
2022-11-29T07:28:05.484Z,26.00
2022-11-29T07:30:51.343Z,23.80
2022-11-29T07:33:47.621Z,26.30
2022-11-29T07:36:55.967Z,24.97
2022-11-29T07:39:45.889Z,24.50
2022-11-29T07:42:34.263Z,24.23
2022-11-29T07:45:19.805Z,27.30
2022-11-29T07:47:46.721Z,24.97
2022-11-29T07:50:14.717Z,24.70
2022-11-29T07:52:41.798Z,25.70
2022-11-29T07:55:19.317Z,24.63
2022-11-29T07:57:50.127Z,26.17
2022-11-29T08:00:19.373Z,26.10
2022-11-29T08:02:47.885Z,25.73
2022-11-29T08:05:14.935Z,25.90
2022-11-29T08:07:42.522Z,23.23
2022-11-29T08:10:16.212Z,26.13
2022-11-29T08:12:50.314Z,27.30
2022-11-29T08:15:22.135Z,26.00
2022-11-29T08:17:50.629Z,24.97
2022-11-29T08:20:17.986Z,24.00
2022-11-29T08:22:44.999Z,26.00
2022-11-29T08:25:12.514Z,26.23
2022-11-29T08:27:39.781Z,25.00
2022-11-29T08:30:07.792Z,25.40
2022-11-29T08:32:35.160Z,25.30
2022-11-29T08:35:02.267Z,25.90
2022-11-29T08:37:29.329Z,24.70
2022-11-29T08:39:58.213Z,23.03
2022-11-29T08:42:25.154Z,24.37
2022-11-29T08:44:52.090Z,25.37
2022-11-29T08:47:36.993Z,23.60
2022-11-29T08:50:17.057Z,24.80
2022-11-29T08:53:08.079Z,24.10
2022-11-29T08:55:42.650Z,22.73
2022-11-29T08:58:13.717Z,25.97
2022-11-29T09:00:43.704Z,27.07
2022-11-29T09:03:29.027Z,25.67
2022-11-29T09:05:56.192Z,21.87
2022-11-29T09:08:23.122Z,24.30
2022-11-29T09:10:50.202Z,22.80
2022-11-29T09:13:18.189Z,22.60
2022-11-29T09:15:45.107Z,24.73
2022-11-29T09:18:12.131Z,26.53
2022-11-29T09:20:42.794Z,24.47
2022-11-29T09:23:10.512Z,23.03
2022-11-29T09:25:37.398Z,22.13
2022-11-29T09:28:04.490Z,23.57
2022-11-29T09:30:31.710Z,23.70
2022-11-29T09:33:05.071Z,22.90
2022-11-29T09:35:33.034Z,27.50
2022-11-29T09:38:00.020Z,25.60
2022-11-29T09:40:45.647Z,23.30
2022-11-29T09:44:03.456Z,23.57
2022-11-29T09:46:58.824Z,31.63
2022-11-29T09:50:02.128Z,25.20
2022-11-29T09:53:15.859Z,26.50
2022-11-29T09:56:16.739Z,25.20
2022-11-29T09:58:52.317Z,24.27
2022-11-29T10:01:28.792Z,23.07
2022-11-29T10:04:06.631Z,23.20
2022-11-29T10:06:43.207Z,23.93
2022-11-29T10:09:44.994Z,23.17
2022-11-29T10:12:39.179Z,23.23
2022-11-29T10:15:22.251Z,23.30
2022-11-29T10:18:40.852Z,21.73
2022-11-29T10:21:30.031Z,20.90
2022-11-29T10:24:05.129Z,21.30
2022-11-29T10:26:35.339Z,24.97
2022-11-29T10:29:02.807Z,24.10
2022-11-29T10:31:39.170Z,22.67
2022-11-29T10:34:19.402Z,22.53
2022-11-29T10:36:51.158Z,24.87
2022-11-29T10:39:44.617Z,23.70
2022-11-29T10:42:40.168Z,23.97
2022-11-29T10:45:50.548Z,23.93
2022-11-29T10:48:20.439Z,24.90
2022-11-29T10:50:50.651Z,30.50
2022-11-29T10:53:30.741Z,21.63
2022-11-29T10:56:29.440Z,23.50
2022-11-29T10:59:02.972Z,23.97
2022-11-29T11:01:38.270Z,23.70
2022-11-29T11:04:09.900Z,20.50
2022-11-29T11:06:52.276Z,22.57
2022-11-29T11:09:41.521Z,22.93
2022-11-29T11:12:21.724Z,23.63
2022-11-29T11:14:51.123Z,23.63
2022-11-29T11:17:32.736Z,24.97
2022-11-29T11:20:19.302Z,24.27
2022-11-29T11:23:04.837Z,23.13
2022-11-29T11:25:37.892Z,23.57
2022-11-29T11:28:26.775Z,24.13
2022-11-29T11:31:05.511Z,24.40
2022-11-29T11:33:36.410Z,22.90
2022-11-29T11:36:27.340Z,23.97
2022-11-29T11:39:12.113Z,23.50
2022-11-29T11:42:00.731Z,23.30
2022-11-29T11:44:50.332Z,23.00
2022-11-29T11:47:30.358Z,23.90
2022-11-29T11:50:06.803Z,24.33
2022-11-29T11:52:41.937Z,23.83
2022-11-29T11:55:43.351Z,29.13
2022-11-29T11:58:12.928Z,22.57
2022-11-29T12:01:03.328Z,23.27
2022-11-29T12:03:38.289Z,23.43
2022-11-29T12:06:55.140Z,22.27
2022-11-29T12:09:34.401Z,23.07
2022-11-29T12:12:21.373Z,24.83
2022-11-29T12:15:26.424Z,26.37
2022-11-29T12:18:13.253Z,26.23
2022-11-29T12:21:09.450Z,25.37
2022-11-29T12:24:16.797Z,30.07
2022-11-29T12:26:59.527Z,25.40
2022-11-29T12:29:31.881Z,25.70
2022-11-29T12:32:45.773Z,22.23
2022-11-29T12:35:50.484Z,23.87
2022-11-29T12:38:24.165Z,24.73
2022-11-29T12:41:16.283Z,25.77
2022-11-29T12:44:37.692Z,24.30
2022-11-29T12:48:02.127Z,25.90
2022-11-29T12:50:37.601Z,24.53
2022-11-29T12:53:44.723Z,23.83
2022-11-29T12:56:27.592Z,22.90
2022-11-29T12:59:22.200Z,26.23
2022-11-29T13:02:00.949Z,25.77
2022-11-29T13:04:43.136Z,22.43
2022-11-29T13:07:35.023Z,23.47
2022-11-29T13:10:18.029Z,22.97
2022-11-29T13:12:56.574Z,23.93
2022-11-29T13:16:01.562Z,24.63
2022-11-29T13:19:09.471Z,23.40
2022-11-29T13:22:03.633Z,23.70
2022-11-29T13:24:42.971Z,25.43
2022-11-29T13:27:22.270Z,25.83
2022-11-29T13:29:49.619Z,23.30
2022-11-29T13:32:53.806Z,23.53
2022-11-29T13:35:44.344Z,25.53
2022-11-29T13:38:32.861Z,25.97
2022-11-29T13:41:33.252Z,26.97
2022-11-29T13:44:27.998Z,27.27
2022-11-29T13:47:16.588Z,27.80
2022-11-29T13:50:06.785Z,26.53
2022-11-29T13:52:44.193Z,24.83
2022-11-29T13:55:11.602Z,26.67
2022-11-29T13:58:25.105Z,27.30
2022-11-29T14:00:52.234Z,25.87
2022-11-29T14:03:19.304Z,27.33
2022-11-29T14:06:10.314Z,26.77
2022-11-29T14:11:44.867Z,26.90
2022-11-29T14:14:38.834Z,25.70
2022-11-29T14:17:46.714Z,27.30
2022-11-29T14:20:22.728Z,26.20
2022-11-29T14:23:04.777Z,25.80
2022-11-29T14:26:08.799Z,26.20
2022-11-29T14:28:40.707Z,25.70
2022-11-29T14:31:10.858Z,26.80
2022-11-29T14:34:00.924Z,25.50
2022-11-29T14:37:04.361Z,27.27
2022-11-29T14:39:47.366Z,25.93
2022-11-29T14:42:19.576Z,27.30
2022-11-29T14:44:52.287Z,27.50
2022-11-29T14:47:37.148Z,26.90
2022-11-29T14:50:09.386Z,26.80
2022-11-29T14:52:50.349Z,26.17
2022-11-29T14:55:17.151Z,28.63
2022-11-29T14:57:50.279Z,26.20
2022-11-29T15:00:28.787Z,28.50
2022-11-29T15:03:10.105Z,27.67
2022-11-29T15:06:14.058Z,26.77
2022-11-29T15:09:06.548Z,26.20
2022-11-29T15:11:52.422Z,26.00
2022-11-29T15:14:23.055Z,28.20
2022-11-29T15:17:27.508Z,28.20
2022-11-29T15:20:13.044Z,26.07
2022-11-29T15:22:53.469Z,26.63
2022-11-29T15:25:31.261Z,26.90
2022-11-29T15:28:05.842Z,26.27
2022-11-29T15:30:38.424Z,27.80
2022-11-29T15:33:24.789Z,27.30
2022-11-29T15:36:04.694Z,27.00
2022-11-29T15:38:46.681Z,26.40
2022-11-29T15:41:28.430Z,26.63
2022-11-29T15:44:04.589Z,28.33
2022-11-29T15:46:35.803Z,25.77
2022-11-29T15:49:27.850Z,26.40
2022-11-29T15:52:00.942Z,30.00
2022-11-29T15:54:46.189Z,27.30
2022-11-29T15:57:25.837Z,28.80
2022-11-29T16:00:04.411Z,27.87
2022-11-29T16:02:35.561Z,29.40
2022-11-29T16:05:22.244Z,28.77
2022-11-29T16:07:55.152Z,29.40
2022-11-29T16:10:36.083Z,30.13
2022-11-29T16:13:07.654Z,29.87
2022-11-29T16:15:38.974Z,29.60
2022-11-29T16:18:16.157Z,27.93
2022-11-29T16:20:43.113Z,29.10
2022-11-29T16:23:15.515Z,29.20
2022-11-29T16:26:13.526Z,31.40
2022-11-29T16:28:51.767Z,30.67
2022-11-29T16:31:22.431Z,29.47
2022-11-29T16:33:52.120Z,30.00
2022-11-29T16:36:29.120Z,30.60
2022-11-29T16:39:22.811Z,32.07
2022-11-29T16:42:06.579Z,31.63
2022-11-29T16:44:47.063Z,31.33
2022-11-29T16:47:25.071Z,30.93
2022-11-29T16:50:23.077Z,33.20
2022-11-29T16:52:56.170Z,31.90
2022-11-29T16:55:24.459Z,31.37
2022-11-29T16:57:52.546Z,31.63
2022-11-29T17:00:33.542Z,32.83
2022-11-29T17:03:00.698Z,30.97
2022-11-29T17:05:28.365Z,31.37
2022-11-29T17:07:55.868Z,32.17
2022-11-29T17:10:25.409Z,30.30
2022-11-29T17:12:53.220Z,31.57
2022-11-29T17:15:20.237Z,29.80
2022-11-29T17:17:47.351Z,33.27
2022-11-29T17:20:14.961Z,33.00
2022-11-29T17:22:42.368Z,35.00
2022-11-29T17:25:10.307Z,32.23
2022-11-29T17:27:37.913Z,30.80
2022-11-29T17:30:06.889Z,30.40
2022-11-29T17:32:36.044Z,32.10
2022-11-29T17:35:03.408Z,30.40
2022-11-29T17:37:31.804Z,31.27
2022-11-29T17:39:58.965Z,32.87
2022-11-29T17:42:26.257Z,31.60
2022-11-29T17:44:53.497Z,30.57
2022-11-29T17:47:20.903Z,31.10
2022-11-29T17:49:48.202Z,32.97
2022-11-29T17:52:15.905Z,32.47
2022-11-29T17:54:43.056Z,31.20
2022-11-29T17:57:10.559Z,32.20
2022-11-29T17:59:37.638Z,29.60
2022-11-29T18:02:04.900Z,32.10
2022-11-29T18:04:32.022Z,30.80
2022-11-29T18:06:59.245Z,31.53
2022-11-29T18:09:26.359Z,31.10
2022-11-29T18:11:53.611Z,29.67
2022-11-29T18:14:23.947Z,29.70
2022-11-29T18:16:52.058Z,31.10
2022-11-29T18:19:22.175Z,33.20
2022-11-29T18:21:50.148Z,30.87
2022-11-29T18:24:17.897Z,30.80
2022-11-29T18:26:44.865Z,30.53
2022-11-29T18:29:12.087Z,27.80
2022-11-29T18:31:42.508Z,31.53
2022-11-29T18:34:11.621Z,32.80
2022-11-29T18:36:47.654Z,32.40
2022-11-29T18:39:18.240Z,30.33
2022-11-29T18:41:48.391Z,29.63
2022-11-29T18:44:18.312Z,27.70
2022-11-29T18:46:46.067Z,30.97
2022-11-29T18:49:15.912Z,30.27
2022-11-29T18:51:44.589Z,28.53
2022-11-29T18:54:13.756Z,31.30
2022-11-29T18:56:41.327Z,30.80
2022-11-29T18:59:13.568Z,30.77
2022-11-29T19:01:42.672Z,29.57
2022-11-29T19:04:19.902Z,30.20
2022-11-29T19:06:47.191Z,31.60
2022-11-29T19:09:23.242Z,30.13
2022-11-29T19:11:50.689Z,32.20
2022-11-29T19:14:18.621Z,28.43
2022-11-29T19:16:48.090Z,31.27
2022-11-29T19:19:15.010Z,31.20
2022-11-29T19:21:42.399Z,27.20
2022-11-29T19:24:14.575Z,31.20
2022-11-29T19:26:45.166Z,31.97
2022-11-29T19:29:13.729Z,29.17
2022-11-29T19:31:41.683Z,31.13
2022-11-29T19:34:08.795Z,32.37
2022-11-29T19:36:42.282Z,31.60
2022-11-29T19:39:10.260Z,31.20
2022-11-29T19:41:38.172Z,31.60
2022-11-29T19:44:07.905Z,30.23
2022-11-29T19:46:38.830Z,30.80
2022-11-29T19:49:07.821Z,30.00
2022-11-29T19:51:35.672Z,29.70
2022-11-29T19:54:06.840Z,26.80
2022-11-29T19:56:33.902Z,31.20
2022-11-29T19:59:00.820Z,30.63
2022-11-29T20:01:37.691Z,32.23
2022-11-29T20:04:04.986Z,32.63
2022-11-29T20:06:31.956Z,32.20
2022-11-29T20:08:59.247Z,29.93
2022-11-29T20:11:26.854Z,30.20
2022-11-29T20:14:00.466Z,32.30
2022-11-29T20:16:29.470Z,32.90
2022-11-29T20:18:57.679Z,33.40
2022-11-29T20:21:28.811Z,33.27
2022-11-29T20:24:05.726Z,33.30
2022-11-29T20:26:35.798Z,31.83
2022-11-29T20:29:05.190Z,33.07
2022-11-29T20:31:33.653Z,32.37
2022-11-29T20:34:01.119Z,29.93
2022-11-29T20:36:58.767Z,32.27
2022-11-29T20:39:38.259Z,32.80
2022-11-29T20:42:29.458Z,27.80
2022-11-29T20:45:01.320Z,32.03
2022-11-29T20:47:53.980Z,33.13
2022-11-29T20:50:27.941Z,31.80
2022-11-29T20:53:31.711Z,31.70
2022-11-29T20:55:59.120Z,32.57
2022-11-29T20:58:26.561Z,33.07
2022-11-29T21:00:55.017Z,32.27
2022-11-29T21:03:22.973Z,32.50
2022-11-29T21:05:51.201Z,32.93
2022-11-29T21:08:21.820Z,30.07
2022-11-29T21:10:50.138Z,31.93
2022-11-29T21:13:19.804Z,32.40
2022-11-29T21:15:47.545Z,31.30
2022-11-29T21:18:25.021Z,32.57
2022-11-29T21:21:20.607Z,32.47
2022-11-29T21:24:06.650Z,33.60
2022-11-29T21:26:42.546Z,33.20
2022-11-29T21:29:16.402Z,30.63
2022-11-29T21:31:44.400Z,34.97
2022-11-29T21:34:11.729Z,32.33
2022-11-29T21:36:39.432Z,30.73
2022-11-29T21:39:08.275Z,32.03
2022-11-29T21:41:35.208Z,30.43
2022-11-29T21:44:07.021Z,32.53
2022-11-29T21:46:34.660Z,32.60
2022-11-29T21:49:02.151Z,32.83
2022-11-29T21:51:29.050Z,32.70
2022-11-29T21:53:56.330Z,33.20
2022-11-29T21:56:23.266Z,31.63
2022-11-29T21:58:50.179Z,32.90
2022-11-29T22:01:20.152Z,34.20
2022-11-29T22:03:47.854Z,35.50
2022-11-29T22:06:21.143Z,33.70
2022-11-29T22:08:48.734Z,32.60
2022-11-29T22:11:30.917Z,29.40
2022-11-29T22:14:13.624Z,33.40
2022-11-29T22:16:58.526Z,33.00
2022-11-29T22:19:34.823Z,33.20
2022-11-29T22:22:05.786Z,31.37
2022-11-29T22:24:35.774Z,35.00
2022-11-29T22:27:03.439Z,37.40
2022-11-29T22:29:30.526Z,34.80
2022-11-29T22:31:59.249Z,34.70
2022-11-29T22:34:27.621Z,35.40
2022-11-29T22:36:55.661Z,31.93
2022-11-29T22:39:23.898Z,33.17
2022-11-29T22:41:54.773Z,35.50
2022-11-29T22:44:25.136Z,34.37
2022-11-29T22:46:52.368Z,33.10
2022-11-29T22:49:19.506Z,35.00
2022-11-29T22:51:46.630Z,36.23
2022-11-29T22:54:17.488Z,35.30
2022-11-29T22:56:45.790Z,34.57
2022-11-29T22:59:12.754Z,34.63
2022-11-29T23:01:41.311Z,34.63
2022-11-29T23:04:10.353Z,36.30
2022-11-29T23:06:44.001Z,37.87
2022-11-29T23:09:16.595Z,34.23
2022-11-29T23:11:45.570Z,33.90
2022-11-29T23:14:12.842Z,33.50
2022-11-29T23:16:40.035Z,33.93
2022-11-29T23:19:07.018Z,34.67
2022-11-29T23:21:37.649Z,35.73
2022-11-29T23:24:05.363Z,33.63
2022-11-29T23:26:39.969Z,34.27
2022-11-29T23:29:10.123Z,33.90
2022-11-29T23:31:37.040Z,34.90
2022-11-29T23:34:04.326Z,34.10
2022-11-29T23:36:31.599Z,34.70
2022-11-29T23:38:58.595Z,36.63
2022-11-29T23:41:25.456Z,34.93
2022-11-29T23:43:52.292Z,34.37
2022-11-29T23:46:22.759Z,34.03
2022-11-29T23:48:50.388Z,34.30
2022-11-29T23:51:19.227Z,34.57
2022-11-29T23:53:51.033Z,33.37
2022-11-29T23:56:18.626Z,33.60
2022-11-29T23:58:46.102Z,34.43
